Aviation Digital Data Service (ADDS)

Output produced by METARs form (0027 UTC 25 April 2019)
found at http://www.aviationweather.gov/metar/data/
 
METAR text: EINN 250000Z 13007KT 9999 FEW022 SCT044 BKN180 09/07 Q0989 NOSIG
Conditions at: EINN (SHANNON AIRPORT , IE) observed 0000 UTC 25 April 2019
Temperature: 9.0°C (48°F)
Dewpoint: 7.0°C (45°F) [RH = 87%]
Pressure (altimeter): 29.20 inches Hg (989.0 mb)
Winds: from the SE (130 degrees) at 8 MPH (7 knots; 3.6 m/s)
Visibility: 6 or more miles (10+ km)
Ceiling: 18000 feet AGL
Clouds: few clouds at 2200 feet AGL
scattered clouds at 4400 feet AGL
broken clouds at 18000 feet AGL
Weather: no significant weather observed at this time

METAR text: EINN 242330Z 13007KT 9999 FEW022 BKN044 09/07 Q0989 NOSIG
Conditions at: EINN (SHANNON AIRPORT , IE) observed 2330 UTC 24 April 2019
Temperature: 9.0°C (48°F)
Dewpoint: 7.0°C (45°F) [RH = 87%]
Pressure (altimeter): 29.20 inches Hg (989.0 mb)
Winds: from the SE (130 degrees) at 8 MPH (7 knots; 3.6 m/s)
Visibility: 6 or more miles (10+ km)
Ceiling: 4400 feet AGL
Clouds: few clouds at 2200 feet AGL
broken clouds at 4400 feet AGL
Weather: no significant weather observed at this time

METAR text: EINN 242300Z 13008KT 9999 FEW022 BKN044 10/07 Q0989 NOSIG
Conditions at: EINN (SHANNON AIRPORT , IE) observed 2300 UTC 24 April 2019
Temperature: 10.0°C (50°F)
Dewpoint: 7.0°C (45°F) [RH = 82%]
Pressure (altimeter): 29.20 inches Hg (989.0 mb)
Winds: from the SE (130 degrees) at 9 MPH (8 knots; 4.1 m/s)
Visibility: 6 or more miles (10+ km)
Ceiling: 4400 feet AGL
Clouds: few clouds at 2200 feet AGL
broken clouds at 4400 feet AGL
Weather: no significant weather observed at this time

METAR text: EINN 242230Z 13007KT 9999 FEW018 BKN045 BKN170 10/07 Q0989 NOSIG
Conditions at: EINN (SHANNON AIRPORT , IE) observed 2230 UTC 24 April 2019
Temperature: 10.0°C (50°F)
Dewpoint: 7.0°C (45°F) [RH = 82%]
Pressure (altimeter): 29.20 inches Hg (989.0 mb)
Winds: from the SE (130 degrees) at 8 MPH (7 knots; 3.6 m/s)
Visibility: 6 or more miles (10+ km)
Ceiling: 4500 feet AGL
Clouds: few clouds at 1800 feet AGL
broken clouds at 4500 feet AGL
broken clouds at 17000 feet AGL
Weather: no significant weather observed at this time

METAR text: EINN 242200Z 13006KT 9999 FEW018 SCT060 BKN180 10/06 Q0988 NOSIG
Conditions at: EINN (SHANNON AIRPORT , IE) observed 2200 UTC 24 April 2019
Temperature: 10.0°C (50°F)
Dewpoint: 6.0°C (43°F) [RH = 76%]
Pressure (altimeter): 29.17 inches Hg (988.0 mb)
Winds: from the SE (130 degrees) at 7 MPH (6 knots; 3.1 m/s)
Visibility: 6 or more miles (10+ km)
Ceiling: 18000 feet AGL
Clouds: few clouds at 1800 feet AGL
scattered clouds at 6000 feet AGL
broken clouds at 18000 feet AGL
Weather: no significant weather observed at this time

METAR text: EINN 242130Z 15008KT 9999 FEW018 BKN060 BKN120 10/06 Q0988 NOSIG
Conditions at: EINN (SHANNON AIRPORT , IE) observed 2130 UTC 24 April 2019
Temperature: 10.0°C (50°F)
Dewpoint: 6.0°C (43°F) [RH = 76%]
Pressure (altimeter): 29.17 inches Hg (988.0 mb)
Winds: from the SSE (150 degrees) at 9 MPH (8 knots; 4.1 m/s)
Visibility: 6 or more miles (10+ km)
Ceiling: 6000 feet AGL
Clouds: few clouds at 1800 feet AGL
broken clouds at 6000 feet AGL
broken clouds at 12000 feet AGL
Weather: no significant weather observed at this time

METAR text: EINN 242100Z 18006KT 9999 FEW015 SCT040 BKN110 10/06 Q0988 NOSIG
Conditions at: EINN (SHANNON AIRPORT , IE) observed 2100 UTC 24 April 2019
Temperature: 10.0°C (50°F)
Dewpoint: 6.0°C (43°F) [RH = 76%]
Pressure (altimeter): 29.17 inches Hg (988.0 mb)
Winds: from the S (180 degrees) at 7 MPH (6 knots; 3.1 m/s)
Visibility: 6 or more miles (10+ km)
Ceiling: 11000 feet AGL
Clouds: few clouds at 1500 feet AGL
scattered clouds at 4000 feet AGL
broken clouds at 11000 feet AGL
Weather: no significant weather observed at this time

METAR text: EINN 242030Z 18007KT 9999 FEW015 BKN030 11/06 Q0988 NOSIG
Conditions at: EINN (SHANNON AIRPORT , IE) observed 2030 UTC 24 April 2019
Temperature: 11.0°C (52°F)
Dewpoint: 6.0°C (43°F) [RH = 71%]
Pressure (altimeter): 29.17 inches Hg (988.0 mb)
Winds: from the S (180 degrees) at 8 MPH (7 knots; 3.6 m/s)
Visibility: 6 or more miles (10+ km)
Ceiling: 3000 feet AGL
Clouds: few clouds at 1500 feet AGL
broken clouds at 3000 feet AGL
Weather: no significant weather observed at this time

METAR text: EINN 242000Z 17013KT 9999 FEW015 BKN030 11/06 Q0988 NOSIG
Conditions at: EINN (SHANNON AIRPORT , IE) observed 2000 UTC 24 April 2019
Temperature: 11.0°C (52°F)
Dewpoint: 6.0°C (43°F) [RH = 71%]
Pressure (altimeter): 29.17 inches Hg (988.0 mb)
Winds: from the S (170 degrees) at 15 MPH (13 knots; 6.7 m/s)
Visibility: 6 or more miles (10+ km)
Ceiling: 3000 feet AGL
Clouds: few clouds at 1500 feet AGL
broken clouds at 3000 feet AGL
Weather: no significant weather observed at this time

METAR text: EINN 241930Z 17014KT 9999 FEW015 FEW018CB BKN030 11/08 Q0987 NOSIG
Conditions at: EINN (SHANNON AIRPORT , IE) observed 1930 UTC 24 April 2019
Temperature: 11.0°C (52°F)
Dewpoint: 8.0°C (46°F) [RH = 82%]
Pressure (altimeter): 29.14 inches Hg (987.0 mb)
Winds: from the S (170 degrees) at 16 MPH (14 knots; 7.2 m/s)
Visibility: 6 or more miles (10+ km)
Ceiling: 3000 feet AGL
Clouds: few clouds at 1500 feet AGL
few clouds at 1800 feet AGL
broken clouds at 3000 feet AGL
Weather: no significant weather observed at this time

METAR text: EINN 241900Z 17011KT 9999 FEW015 FEW020CB SCT034 BKN050 11/08 Q0987 NOSIG
Conditions at: EINN (SHANNON AIRPORT , IE) observed 1900 UTC 24 April 2019
Temperature: 11.0°C (52°F)
Dewpoint: 8.0°C (46°F) [RH = 82%]
Pressure (altimeter): 29.14 inches Hg (987.0 mb)
Winds: from the S (170 degrees) at 13 MPH (11 knots; 5.7 m/s)
Visibility: 6 or more miles (10+ km)
Ceiling: 5000 feet AGL
Clouds: few clouds at 1500 feet AGL
few clouds at 2000 feet AGL
scattered clouds at 3400 feet AGL
broken clouds at 5000 feet AGL
Weather: no significant weather observed at this time

METAR text: EINN 241830Z 17010KT 9999 -SHRA FEW012 SCT020CB BKN030 12/10 Q0987 NOSIG
Conditions at: EINN (SHANNON AIRPORT , IE) observed 1830 UTC 24 April 2019
Temperature: 12.0°C (54°F)
Dewpoint: 10.0°C (50°F) [RH = 88%]
Pressure (altimeter): 29.14 inches Hg (987.0 mb)
Winds: from the S (170 degrees) at 12 MPH (10 knots; 5.1 m/s)
Visibility: 6 or more miles (10+ km)
Ceiling: 3000 feet AGL
Clouds: few clouds at 1200 feet AGL
scattered clouds at 2000 feet AGL
broken clouds at 3000 feet AGL
Weather: -SHRA  (light rain showers)

METAR text: EINN 241800Z 11011KT 9999 -SHRA FEW012 FEW020CB BKN028 BKN050 12/10 Q0986 NOSIG
Conditions at: EINN (SHANNON AIRPORT , IE) observed 1800 UTC 24 April 2019
Temperature: 12.0°C (54°F)
Dewpoint: 10.0°C (50°F) [RH = 88%]
Pressure (altimeter): 29.11 inches Hg (986.0 mb)
Winds: from the ESE (110 degrees) at 13 MPH (11 knots; 5.7 m/s)
Visibility: 6 or more miles (10+ km)
Ceiling: 2800 feet AGL
Clouds: few clouds at 1200 feet AGL
few clouds at 2000 feet AGL
broken clouds at 2800 feet AGL
broken clouds at 5000 feet AGL
Weather: -SHRA  (light rain showers)

METAR text: EINN 241730Z 11010KT 9999 FEW009 FEW020CB SCT043 BKN060 12/10 Q0986 NOSIG
Conditions at: EINN (SHANNON AIRPORT , IE) observed 1730 UTC 24 April 2019
Temperature: 12.0°C (54°F)
Dewpoint: 10.0°C (50°F) [RH = 88%]
Pressure (altimeter): 29.11 inches Hg (986.0 mb)
Winds: from the ESE (110 degrees) at 12 MPH (10 knots; 5.1 m/s)
Visibility: 6 or more miles (10+ km)
Ceiling: 6000 feet AGL
Clouds: few clouds at 900 feet AGL
few clouds at 2000 feet AGL
scattered clouds at 4300 feet AGL
broken clouds at 6000 feet AGL
Weather: no significant weather observed at this time

METAR text: EINN 241700Z 13012KT 9999 -RA FEW010 SCT017 BKN050 12/10 Q0986 NOSIG
Conditions at: EINN (SHANNON AIRPORT , IE) observed 1700 UTC 24 April 2019
Temperature: 12.0°C (54°F)
Dewpoint: 10.0°C (50°F) [RH = 88%]
Pressure (altimeter): 29.11 inches Hg (986.0 mb)
Winds: from the SE (130 degrees) at 14 MPH (12 knots; 6.2 m/s)
Visibility: 6 or more miles (10+ km)
Ceiling: 5000 feet AGL
Clouds: few clouds at 1000 feet AGL
scattered clouds at 1700 feet AGL
broken clouds at 5000 feet AGL
Weather: -RA  (light rain)

METAR text: EINN 241630Z 11011KT 9999 -RA FEW010 BKN050 13/10 Q0986 NOSIG
Conditions at: EINN (SHANNON AIRPORT , IE) observed 1630 UTC 24 April 2019
Temperature: 13.0°C (55°F)
Dewpoint: 10.0°C (50°F) [RH = 82%]
Pressure (altimeter): 29.11 inches Hg (986.0 mb)
Winds: from the ESE (110 degrees) at 13 MPH (11 knots; 5.7 m/s)
Visibility: 6 or more miles (10+ km)
Ceiling: 5000 feet AGL
Clouds: few clouds at 1000 feet AGL
broken clouds at 5000 feet AGL
Weather: -RA  (light rain)

METAR text: EINN 241600Z 10012KT 9999 -RA FEW012 BKN060 13/10 Q0986 NOSIG
Conditions at: EINN (SHANNON AIRPORT , IE) observed 1600 UTC 24 April 2019
Temperature: 13.0°C (55°F)
Dewpoint: 10.0°C (50°F) [RH = 82%]
Pressure (altimeter): 29.11 inches Hg (986.0 mb)
Winds: from the E (100 degrees) at 14 MPH (12 knots; 6.2 m/s)
Visibility: 6 or more miles (10+ km)
Ceiling: 6000 feet AGL
Clouds: few clouds at 1200 feet AGL
broken clouds at 6000 feet AGL
Weather: -RA  (light rain)

METAR text: EINN 241530Z 12013KT 9999 FEW012 BKN050 13/10 Q0986 NOSIG
Conditions at: EINN (SHANNON AIRPORT , IE) observed 1530 UTC 24 April 2019
Temperature: 13.0°C (55°F)
Dewpoint: 10.0°C (50°F) [RH = 82%]
Pressure (altimeter): 29.11 inches Hg (986.0 mb)
Winds: from the ESE (120 degrees) at 15 MPH (13 knots; 6.7 m/s)
Visibility: 6 or more miles (10+ km)
Ceiling: 5000 feet AGL
Clouds: few clouds at 1200 feet AGL
broken clouds at 5000 feet AGL
Weather: no significant weather observed at this time

METAR text: EINN 241500Z 12012KT 9999 FEW018 BKN060 14/09 Q0986 NOSIG
Conditions at: EINN (SHANNON AIRPORT , IE) observed 1500 UTC 24 April 2019
Temperature: 14.0°C (57°F)
Dewpoint: 9.0°C (48°F) [RH = 72%]
Pressure (altimeter): 29.11 inches Hg (986.0 mb)
Winds: from the ESE (120 degrees) at 14 MPH (12 knots; 6.2 m/s)
Visibility: 6 or more miles (10+ km)
Ceiling: 6000 feet AGL
Clouds: few clouds at 1800 feet AGL
broken clouds at 6000 feet AGL
Weather: no significant weather observed at this time

METAR text: EINN 241430Z 12013KT 9999 FEW028 BKN080 14/08 Q0986 NOSIG
Conditions at: EINN (SHANNON AIRPORT , IE) observed 1430 UTC 24 April 2019
Temperature: 14.0°C (57°F)
Dewpoint: 8.0°C (46°F) [RH = 67%]
Pressure (altimeter): 29.11 inches Hg (986.0 mb)
Winds: from the ESE (120 degrees) at 15 MPH (13 knots; 6.7 m/s)
Visibility: 6 or more miles (10+ km)
Ceiling: 8000 feet AGL
Clouds: few clouds at 2800 feet AGL
broken clouds at 8000 feet AGL
Weather: no significant weather observed at this time

METAR text: EINN 241400Z 12013KT 9999 FEW028 BKN046 14/08 Q0986 NOSIG
Conditions at: EINN (SHANNON AIRPORT , IE) observed 1400 UTC 24 April 2019
Temperature: 14.0°C (57°F)
Dewpoint: 8.0°C (46°F) [RH = 67%]
Pressure (altimeter): 29.11 inches Hg (986.0 mb)
Winds: from the ESE (120 degrees) at 15 MPH (13 knots; 6.7 m/s)
Visibility: 6 or more miles (10+ km)
Ceiling: 4600 feet AGL
Clouds: few clouds at 2800 feet AGL
broken clouds at 4600 feet AGL
Weather: no significant weather observed at this time

METAR text: EINN 241330Z 13016KT 9999 FEW024 BKN030 BKN100 14/08 Q0986 NOSIG
Conditions at: EINN (SHANNON AIRPORT , IE) observed 1330 UTC 24 April 2019
Temperature: 14.0°C (57°F)
Dewpoint: 8.0°C (46°F) [RH = 67%]
Pressure (altimeter): 29.11 inches Hg (986.0 mb)
Winds: from the SE (130 degrees) at 18 MPH (16 knots; 8.2 m/s)
Visibility: 6 or more miles (10+ km)
Ceiling: 3000 feet AGL
Clouds: few clouds at 2400 feet AGL
broken clouds at 3000 feet AGL
broken clouds at 10000 feet AGL
Weather: no significant weather observed at this time

METAR text: EINN 241300Z 13017KT 9999 FEW021 BKN030 BKN110 14/07 Q0986 NOSIG
Conditions at: EINN (SHANNON AIRPORT , IE) observed 1300 UTC 24 April 2019
Temperature: 14.0°C (57°F)
Dewpoint: 7.0°C (45°F) [RH = 63%]
Pressure (altimeter): 29.11 inches Hg (986.0 mb)
Winds: from the SE (130 degrees) at 20 MPH (17 knots; 8.7 m/s)
Visibility: 6 or more miles (10+ km)
Ceiling: 3000 feet AGL
Clouds: few clouds at 2100 feet AGL
broken clouds at 3000 feet AGL
broken clouds at 11000 feet AGL
Weather: no significant weather observed at this time

METAR text: EINN 241230Z 14015KT 9999 FEW021 BKN034 14/08 Q0986 NOSIG
Conditions at: EINN (SHANNON AIRPORT , IE) observed 1230 UTC 24 April 2019
Temperature: 14.0°C (57°F)
Dewpoint: 8.0°C (46°F) [RH = 67%]
Pressure (altimeter): 29.11 inches Hg (986.0 mb)
Winds: from the SE (140 degrees) at 17 MPH (15 knots; 7.7 m/s)
Visibility: 6 or more miles (10+ km)
Ceiling: 3400 feet AGL
Clouds: few clouds at 2100 feet AGL
broken clouds at 3400 feet AGL
Weather: no significant weather observed at this time

METAR text: EINN 241200Z 13015KT 9999 FEW020 SCT026 BKN040 15/08 Q0986 NOSIG
Conditions at: EINN (SHANNON AIRPORT , IE) observed 1200 UTC 24 April 2019
Temperature: 15.0°C (59°F)
Dewpoint: 8.0°C (46°F) [RH = 63%]
Pressure (altimeter): 29.11 inches Hg (986.0 mb)
Winds: from the SE (130 degrees) at 17 MPH (15 knots; 7.7 m/s)
Visibility: 6 or more miles (10+ km)
Ceiling: 4000 feet AGL
Clouds: few clouds at 2000 feet AGL
scattered clouds at 2600 feet AGL
broken clouds at 4000 feet AGL
Weather: no significant weather observed at this time

METAR text: EINN 241130Z 14014KT 9999 FEW014 BKN028 14/09 Q0986 NOSIG
Conditions at: EINN (SHANNON AIRPORT , IE) observed 1130 UTC 24 April 2019
Temperature: 14.0°C (57°F)
Dewpoint: 9.0°C (48°F) [RH = 72%]
Pressure (altimeter): 29.11 inches Hg (986.0 mb)
Winds: from the SE (140 degrees) at 16 MPH (14 knots; 7.2 m/s)
Visibility: 6 or more miles (10+ km)
Ceiling: 2800 feet AGL
Clouds: few clouds at 1400 feet AGL
broken clouds at 2800 feet AGL
Weather: no significant weather observed at this time

METAR text: EINN 241100Z 13017KT 9999 FEW011 SCT028 15/09 Q0986 NOSIG
Conditions at: EINN (SHANNON AIRPORT , IE) observed 1100 UTC 24 April 2019
Temperature: 15.0°C (59°F)
Dewpoint: 9.0°C (48°F) [RH = 67%]
Pressure (altimeter): 29.11 inches Hg (986.0 mb)
Winds: from the SE (130 degrees) at 20 MPH (17 knots; 8.7 m/s)
Visibility: 6 or more miles (10+ km)
Ceiling: at least 12,000 feet AGL
Clouds: few clouds at 1100 feet AGL
scattered clouds at 2800 feet AGL
Weather: no significant weather observed at this time

METAR text: EINN 241030Z 14014KT 9999 FEW008 BKN028 BKN070 13/09 Q0986 NOSIG
Conditions at: EINN (SHANNON AIRPORT , IE) observed 1030 UTC 24 April 2019
Temperature: 13.0°C (55°F)
Dewpoint: 9.0°C (48°F) [RH = 77%]
Pressure (altimeter): 29.11 inches Hg (986.0 mb)
Winds: from the SE (140 degrees) at 16 MPH (14 knots; 7.2 m/s)
Visibility: 6 or more miles (10+ km)
Ceiling: 2800 feet AGL
Clouds: few clouds at 800 feet AGL
broken clouds at 2800 feet AGL
broken clouds at 7000 feet AGL
Weather: no significant weather observed at this time

METAR text: EINN 241000Z 12010KT 9999 FEW010 SCT014 BKN024 13/11 Q0986 NOSIG
Conditions at: EINN (SHANNON AIRPORT , IE) observed 1000 UTC 24 April 2019
Temperature: 13.0°C (55°F)
Dewpoint: 11.0°C (52°F) [RH = 88%]
Pressure (altimeter): 29.11 inches Hg (986.0 mb)
Winds: from the ESE (120 degrees) at 12 MPH (10 knots; 5.1 m/s)
Visibility: 6 or more miles (10+ km)
Ceiling: 2400 feet AGL
Clouds: few clouds at 1000 feet AGL
scattered clouds at 1400 feet AGL
broken clouds at 2400 feet AGL
Weather: no significant weather observed at this time

METAR text: EINN 240930Z 11009KT 9999 FEW012 BKN024 12/11 Q0986 NOSIG
Conditions at: EINN (SHANNON AIRPORT , IE) observed 0930 UTC 24 April 2019
Temperature: 12.0°C (54°F)
Dewpoint: 11.0°C (52°F) [RH = 94%]
Pressure (altimeter): 29.11 inches Hg (986.0 mb)
Winds: from the ESE (110 degrees) at 10 MPH (9 knots; 4.6 m/s)
Visibility: 6 or more miles (10+ km)
Ceiling: 2400 feet AGL
Clouds: few clouds at 1200 feet AGL
broken clouds at 2400 feet AGL
Weather: no significant weather observed at this time

METAR text: EINN 240900Z 12010KT 9999 SCT015 BKN021 12/11 Q0986 NOSIG
Conditions at: EINN (SHANNON AIRPORT , IE) observed 0900 UTC 24 April 2019
Temperature: 12.0°C (54°F)
Dewpoint: 11.0°C (52°F) [RH = 94%]
Pressure (altimeter): 29.11 inches Hg (986.0 mb)
Winds: from the ESE (120 degrees) at 12 MPH (10 knots; 5.1 m/s)
Visibility: 6 or more miles (10+ km)
Ceiling: 2100 feet AGL
Clouds: scattered clouds at 1500 feet AGL
broken clouds at 2100 feet AGL
Weather: no significant weather observed at this time

METAR text: EINN 240830Z 13012KT 6000 -DZ FEW006 BKN012 BKN018 12/11 Q0987 NOSIG
Conditions at: EINN (SHANNON AIRPORT , IE) observed 0830 UTC 24 April 2019
Temperature: 12.0°C (54°F)
Dewpoint: 11.0°C (52°F) [RH = 94%]
Pressure (altimeter): 29.14 inches Hg (987.0 mb)
Winds: from the SE (130 degrees) at 14 MPH (12 knots; 6.2 m/s)
Visibility: 4 miles ( 6 km)
Ceiling: 1200 feet AGL
Clouds: few clouds at 600 feet AGL
broken clouds at 1200 feet AGL
broken clouds at 1800 feet AGL
Weather: -DZ  (light drizzle)

METAR text: EINN 240800Z 11012KT 9000 -DZ FEW007 BKN010 12/11 Q0987 NOSIG
Conditions at: EINN (SHANNON AIRPORT , IE) observed 0800 UTC 24 April 2019
Temperature: 12.0°C (54°F)
Dewpoint: 11.0°C (52°F) [RH = 94%]
Pressure (altimeter): 29.14 inches Hg (987.0 mb)
Winds: from the ESE (110 degrees) at 14 MPH (12 knots; 6.2 m/s)
Visibility: 6 miles ( 9 km)
Ceiling: 1000 feet AGL
Clouds: few clouds at 700 feet AGL
broken clouds at 1000 feet AGL
Weather: -DZ  (light drizzle)

METAR text: EINN 240730Z 10012KT 9000 -RA FEW009 BKN012 BKN018 12/11 Q0987 NOSIG
Conditions at: EINN (SHANNON AIRPORT , IE) observed 0730 UTC 24 April 2019
Temperature: 12.0°C (54°F)
Dewpoint: 11.0°C (52°F) [RH = 94%]
Pressure (altimeter): 29.14 inches Hg (987.0 mb)
Winds: from the E (100 degrees) at 14 MPH (12 knots; 6.2 m/s)
Visibility: 6 miles ( 9 km)
Ceiling: 1200 feet AGL
Clouds: few clouds at 900 feet AGL
broken clouds at 1200 feet AGL
broken clouds at 1800 feet AGL
Weather: -RA  (light rain)

METAR text: EINN 240700Z 10013KT 4000 -RADZ FEW007 SCT009 BKN013 12/11 Q0987 NOSIG
Conditions at: EINN (SHANNON AIRPORT , IE) observed 0700 UTC 24 April 2019
Temperature: 12.0°C (54°F)
Dewpoint: 11.0°C (52°F) [RH = 94%]
Pressure (altimeter): 29.14 inches Hg (987.0 mb)
Winds: from the E (100 degrees) at 15 MPH (13 knots; 6.7 m/s)
Visibility: 2.49 miles (4.01 km)
Ceiling: 1300 feet AGL
Clouds: few clouds at 700 feet AGL
scattered clouds at 900 feet AGL
broken clouds at 1300 feet AGL
Weather: -RA -DZ  (light rain, light drizzle)

METAR text: EINN 240630Z 10011KT 5000 -RA SCT016 BKN019 13/11 Q0987 NOSIG
Conditions at: EINN (SHANNON AIRPORT , IE) observed 0630 UTC 24 April 2019
Temperature: 13.0°C (55°F)
Dewpoint: 11.0°C (52°F) [RH = 88%]
Pressure (altimeter): 29.14 inches Hg (987.0 mb)
Winds: from the E (100 degrees) at 13 MPH (11 knots; 5.7 m/s)
Visibility: 3 miles ( 5 km)
Ceiling: 1900 feet AGL
Clouds: scattered clouds at 1600 feet AGL
broken clouds at 1900 feet AGL
Weather: -RA  (light rain)

METAR text: EINN 240600Z 09010KT 7000 -RA BKN017 12/11 Q0987 NOSIG
Conditions at: EINN (SHANNON AIRPORT , IE) observed 0600 UTC 24 April 2019
Temperature: 12.0°C (54°F)
Dewpoint: 11.0°C (52°F) [RH = 94%]
Pressure (altimeter): 29.14 inches Hg (987.0 mb)
Winds: from the E (90 degrees) at 12 MPH (10 knots; 5.1 m/s)
Visibility: 4 miles ( 7 km)
Ceiling: 1700 feet AGL
Clouds: broken clouds at 1700 feet AGL
Weather: -RA  (light rain)

METAR text: EINN 240530Z 08011KT 7000 -RA BKN014 BKN060 12/11 Q0987 NOSIG
Conditions at: EINN (SHANNON AIRPORT , IE) observed 0530 UTC 24 April 2019
Temperature: 12.0°C (54°F)
Dewpoint: 11.0°C (52°F) [RH = 94%]
Pressure (altimeter): 29.14 inches Hg (987.0 mb)
Winds: from the E (80 degrees) at 13 MPH (11 knots; 5.7 m/s)
Visibility: 4 miles ( 7 km)
Ceiling: 1400 feet AGL
Clouds: broken clouds at 1400 feet AGL
broken clouds at 6000 feet AGL
Weather: -RA  (light rain)

METAR text: EINN 240500Z 10010KT 9999 -RA BKN014 BKN070 12/11 Q0987 NOSIG
Conditions at: EINN (SHANNON AIRPORT , IE) observed 0500 UTC 24 April 2019
Temperature: 12.0°C (54°F)
Dewpoint: 11.0°C (52°F) [RH = 94%]
Pressure (altimeter): 29.14 inches Hg (987.0 mb)
Winds: from the E (100 degrees) at 12 MPH (10 knots; 5.1 m/s)
Visibility: 6 or more miles (10+ km)
Ceiling: 1400 feet AGL
Clouds: broken clouds at 1400 feet AGL
broken clouds at 7000 feet AGL
Weather: -RA  (light rain)

METAR text: EINN 240430Z 10013KT 9999 -RA BKN015 12/11 Q0988 NOSIG
Conditions at: EINN (SHANNON AIRPORT , IE) observed 0430 UTC 24 April 2019
Temperature: 12.0°C (54°F)
Dewpoint: 11.0°C (52°F) [RH = 94%]
Pressure (altimeter): 29.17 inches Hg (988.0 mb)
Winds: from the E (100 degrees) at 15 MPH (13 knots; 6.7 m/s)
Visibility: 6 or more miles (10+ km)
Ceiling: 1500 feet AGL
Clouds: broken clouds at 1500 feet AGL
Weather: -RA  (light rain)

METAR text: EINN 240400Z 09010KT 9999 -RA BKN015 BKN070 12/10 Q0988 NOSIG
Conditions at: EINN (SHANNON AIRPORT , IE) observed 0400 UTC 24 April 2019
Temperature: 12.0°C (54°F)
Dewpoint: 10.0°C (50°F) [RH = 88%]
Pressure (altimeter): 29.17 inches Hg (988.0 mb)
Winds: from the E (90 degrees) at 12 MPH (10 knots; 5.1 m/s)
Visibility: 6 or more miles (10+ km)
Ceiling: 1500 feet AGL
Clouds: broken clouds at 1500 feet AGL
broken clouds at 7000 feet AGL
Weather: -RA  (light rain)

METAR text: EINN 240330Z 08007KT 9999 -RA SCT015 BKN070 12/10 Q0988 NOSIG
Conditions at: EINN (SHANNON AIRPORT , IE) observed 0330 UTC 24 April 2019
Temperature: 12.0°C (54°F)
Dewpoint: 10.0°C (50°F) [RH = 88%]
Pressure (altimeter): 29.17 inches Hg (988.0 mb)
Winds: from the E (80 degrees) at 8 MPH (7 knots; 3.6 m/s)
Visibility: 6 or more miles (10+ km)
Ceiling: 7000 feet AGL
Clouds: scattered clouds at 1500 feet AGL
broken clouds at 7000 feet AGL
Weather: -RA  (light rain)

METAR text: EINN 240300Z 10008KT 9999 -RA SCT016 BKN070 12/10 Q0988 NOSIG
Conditions at: EINN (SHANNON AIRPORT , IE) observed 0300 UTC 24 April 2019
Temperature: 12.0°C (54°F)
Dewpoint: 10.0°C (50°F) [RH = 88%]
Pressure (altimeter): 29.17 inches Hg (988.0 mb)
Winds: from the E (100 degrees) at 9 MPH (8 knots; 4.1 m/s)
Visibility: 6 or more miles (10+ km)
Ceiling: 7000 feet AGL
Clouds: scattered clouds at 1600 feet AGL
broken clouds at 7000 feet AGL
Weather: -RA  (light rain)

METAR text: EINN 240230Z 10009KT 9999 -RA SCT022 BKN070 13/09 Q0989 NOSIG
Conditions at: EINN (SHANNON AIRPORT , IE) observed 0230 UTC 24 April 2019
Temperature: 13.0°C (55°F)
Dewpoint: 9.0°C (48°F) [RH = 77%]
Pressure (altimeter): 29.20 inches Hg (989.0 mb)
Winds: from the E (100 degrees) at 10 MPH (9 knots; 4.6 m/s)
Visibility: 6 or more miles (10+ km)
Ceiling: 7000 feet AGL
Clouds: scattered clouds at 2200 feet AGL
broken clouds at 7000 feet AGL
Weather: -RA  (light rain)

METAR text: EINN 240200Z 10008KT CAVOK 13/09 Q0989 NOSIG
Conditions at: EINN (SHANNON AIRPORT , IE) observed 0200 UTC 24 April 2019
Temperature: 13.0°C (55°F)
Dewpoint: 9.0°C (48°F) [RH = 77%]
Pressure (altimeter): 29.20 inches Hg (989.0 mb)
Winds: from the E (100 degrees) at 9 MPH (8 knots; 4.1 m/s)
Visibility: 6 or more miles (10+ km)
Ceiling: ceiling and visibility are OK
Clouds: unknown
Weather: no significant weather observed at this time

METAR text: EINN 240130Z 09003KT CAVOK 12/09 Q0990 NOSIG
Conditions at: EINN (SHANNON AIRPORT , IE) observed 0130 UTC 24 April 2019
Temperature: 12.0°C (54°F)
Dewpoint: 9.0°C (48°F) [RH = 82%]
Pressure (altimeter): 29.23 inches Hg (990.0 mb)
Winds: from the E (90 degrees) at 3 MPH (3 knots; 1.5 m/s)
Visibility: 6 or more miles (10+ km)
Ceiling: ceiling and visibility are OK
Clouds: unknown
Weather: no significant weather observed at this time

METAR text: EINN 240100Z 11004KT CAVOK 12/09 Q0990 NOSIG
Conditions at: EINN (SHANNON AIRPORT , IE) observed 0100 UTC 24 April 2019
Temperature: 12.0°C (54°F)
Dewpoint: 9.0°C (48°F) [RH = 82%]
Pressure (altimeter): 29.23 inches Hg (990.0 mb)
Winds: from the ESE (110 degrees) at 5 MPH (4 knots; 2.1 m/s)
Visibility: 6 or more miles (10+ km)
Ceiling: ceiling and visibility are OK
Clouds: unknown
Weather: no significant weather observed at this time

METAR text: EINN 240030Z 12006KT CAVOK 12/09 Q0990 NOSIG
Conditions at: EINN (SHANNON AIRPORT , IE) observed 0030 UTC 24 April 2019
Temperature: 12.0°C (54°F)
Dewpoint: 9.0°C (48°F) [RH = 82%]
Pressure (altimeter): 29.23 inches Hg (990.0 mb)
Winds: from the ESE (120 degrees) at 7 MPH (6 knots; 3.1 m/s)
Visibility: 6 or more miles (10+ km)
Ceiling: ceiling and visibility are OK
Clouds: unknown
Weather: no significant weather observed at this time

METAR text: EINN 240000Z 13008KT 9999 -RA BKN070 12/10 Q0991 NOSIG
Conditions at: EINN (SHANNON AIRPORT , IE) observed 0000 UTC 24 April 2019
Temperature: 12.0°C (54°F)
Dewpoint: 10.0°C (50°F) [RH = 88%]
Pressure (altimeter): 29.26 inches Hg (991.0 mb)
Winds: from the SE (130 degrees) at 9 MPH (8 knots; 4.1 m/s)
Visibility: 6 or more miles (10+ km)
Ceiling: 7000 feet AGL
Clouds: broken clouds at 7000 feet AGL
Weather: -RA  (light rain)

METAR text: EINN 232330Z 12010KT CAVOK 12/09 Q0991 NOSIG
Conditions at: EINN (SHANNON AIRPORT , IE) observed 2330 UTC 23 April 2019
Temperature: 12.0°C (54°F)
Dewpoint: 9.0°C (48°F) [RH = 82%]
Pressure (altimeter): 29.26 inches Hg (991.0 mb)
Winds: from the ESE (120 degrees) at 12 MPH (10 knots; 5.1 m/s)
Visibility: 6 or more miles (10+ km)
Ceiling: ceiling and visibility are OK
Clouds: unknown
Weather: no significant weather observed at this time

METAR text: EINN 232300Z 11009KT CAVOK 13/08 Q0991 NOSIG
Conditions at: EINN (SHANNON AIRPORT , IE) observed 2300 UTC 23 April 2019
Temperature: 13.0°C (55°F)
Dewpoint: 8.0°C (46°F) [RH = 72%]
Pressure (altimeter): 29.26 inches Hg (991.0 mb)
Winds: from the ESE (110 degrees) at 10 MPH (9 knots; 4.6 m/s)
Visibility: 6 or more miles (10+ km)
Ceiling: ceiling and visibility are OK
Clouds: unknown
Weather: no significant weather observed at this time

METAR text: EINN 232230Z 10008KT CAVOK 13/09 Q0991 NOSIG
Conditions at: EINN (SHANNON AIRPORT , IE) observed 2230 UTC 23 April 2019
Temperature: 13.0°C (55°F)
Dewpoint: 9.0°C (48°F) [RH = 77%]
Pressure (altimeter): 29.26 inches Hg (991.0 mb)
Winds: from the E (100 degrees) at 9 MPH (8 knots; 4.1 m/s)
Visibility: 6 or more miles (10+ km)
Ceiling: ceiling and visibility are OK
Clouds: unknown
Weather: no significant weather observed at this time

METAR text: EINN 232200Z 11010KT CAVOK 13/09 Q0992 NOSIG
Conditions at: EINN (SHANNON AIRPORT , IE) observed 2200 UTC 23 April 2019
Temperature: 13.0°C (55°F)
Dewpoint: 9.0°C (48°F) [RH = 77%]
Pressure (altimeter): 29.29 inches Hg (992.0 mb)
Winds: from the ESE (110 degrees) at 12 MPH (10 knots; 5.1 m/s)
Visibility: 6 or more miles (10+ km)
Ceiling: ceiling and visibility are OK
Clouds: unknown
Weather: no significant weather observed at this time

METAR text: EINN 232130Z 12009KT CAVOK 13/09 Q0992 NOSIG
Conditions at: EINN (SHANNON AIRPORT , IE) observed 2130 UTC 23 April 2019
Temperature: 13.0°C (55°F)
Dewpoint: 9.0°C (48°F) [RH = 77%]
Pressure (altimeter): 29.29 inches Hg (992.0 mb)
Winds: from the ESE (120 degrees) at 10 MPH (9 knots; 4.6 m/s)
Visibility: 6 or more miles (10+ km)
Ceiling: ceiling and visibility are OK
Clouds: unknown
Weather: no significant weather observed at this time

METAR text: EINN 232100Z 13009KT CAVOK 13/09 Q0992 NOSIG
Conditions at: EINN (SHANNON AIRPORT , IE) observed 2100 UTC 23 April 2019
Temperature: 13.0°C (55°F)
Dewpoint: 9.0°C (48°F) [RH = 77%]
Pressure (altimeter): 29.29 inches Hg (992.0 mb)
Winds: from the SE (130 degrees) at 10 MPH (9 knots; 4.6 m/s)
Visibility: 6 or more miles (10+ km)
Ceiling: ceiling and visibility are OK
Clouds: unknown
Weather: no significant weather observed at this time

METAR text: EINN 232030Z 13008KT CAVOK 14/09 Q0992 NOSIG
Conditions at: EINN (SHANNON AIRPORT , IE) observed 2030 UTC 23 April 2019
Temperature: 14.0°C (57°F)
Dewpoint: 9.0°C (48°F) [RH = 72%]
Pressure (altimeter): 29.29 inches Hg (992.0 mb)
Winds: from the SE (130 degrees) at 9 MPH (8 knots; 4.1 m/s)
Visibility: 6 or more miles (10+ km)
Ceiling: ceiling and visibility are OK
Clouds: unknown
Weather: no significant weather observed at this time

METAR text: EINN 232000Z 12009KT CAVOK 14/10 Q0992 NOSIG
Conditions at: EINN (SHANNON AIRPORT , IE) observed 2000 UTC 23 April 2019
Temperature: 14.0°C (57°F)
Dewpoint: 10.0°C (50°F) [RH = 77%]
Pressure (altimeter): 29.29 inches Hg (992.0 mb)
Winds: from the ESE (120 degrees) at 10 MPH (9 knots; 4.6 m/s)
Visibility: 6 or more miles (10+ km)
Ceiling: ceiling and visibility are OK
Clouds: unknown
Weather: no significant weather observed at this time

METAR text: EINN 231930Z 11007KT CAVOK 15/10 Q0992 NOSIG
Conditions at: EINN (SHANNON AIRPORT , IE) observed 1930 UTC 23 April 2019
Temperature: 15.0°C (59°F)
Dewpoint: 10.0°C (50°F) [RH = 72%]
Pressure (altimeter): 29.29 inches Hg (992.0 mb)
Winds: from the ESE (110 degrees) at 8 MPH (7 knots; 3.6 m/s)
Visibility: 6 or more miles (10+ km)
Ceiling: ceiling and visibility are OK
Clouds: unknown
Weather: no significant weather observed at this time

METAR text: EINN 231900Z 13010KT 9999 FEW030 16/10 Q0992 NOSIG
Conditions at: EINN (SHANNON AIRPORT , IE) observed 1900 UTC 23 April 2019
Temperature: 16.0°C (61°F)
Dewpoint: 10.0°C (50°F) [RH = 68%]
Pressure (altimeter): 29.29 inches Hg (992.0 mb)
Winds: from the SE (130 degrees) at 12 MPH (10 knots; 5.1 m/s)
Visibility: 6 or more miles (10+ km)
Ceiling: at least 12,000 feet AGL
Clouds: few clouds at 3000 feet AGL
Weather: no significant weather observed at this time

METAR text: EINN 231830Z 13010KT 9999 FEW030 16/10 Q0991 NOSIG
Conditions at: EINN (SHANNON AIRPORT , IE) observed 1830 UTC 23 April 2019
Temperature: 16.0°C (61°F)
Dewpoint: 10.0°C (50°F) [RH = 68%]
Pressure (altimeter): 29.26 inches Hg (991.0 mb)
Winds: from the SE (130 degrees) at 12 MPH (10 knots; 5.1 m/s)
Visibility: 6 or more miles (10+ km)
Ceiling: at least 12,000 feet AGL
Clouds: few clouds at 3000 feet AGL
Weather: no significant weather observed at this time

METAR text: EINN 231800Z 14011KT 9999 FEW028 17/10 Q0991 NOSIG
Conditions at: EINN (SHANNON AIRPORT , IE) observed 1800 UTC 23 April 2019
Temperature: 17.0°C (63°F)
Dewpoint: 10.0°C (50°F) [RH = 63%]
Pressure (altimeter): 29.26 inches Hg (991.0 mb)
Winds: from the SE (140 degrees) at 13 MPH (11 knots; 5.7 m/s)
Visibility: 6 or more miles (10+ km)
Ceiling: at least 12,000 feet AGL
Clouds: few clouds at 2800 feet AGL
Weather: no significant weather observed at this time

METAR text: EINN 231730Z 13012KT 9999 FEW028 SCT200 18/09 Q0991 NOSIG
Conditions at: EINN (SHANNON AIRPORT , IE) observed 1730 UTC 23 April 2019
Temperature: 18.0°C (64°F)
Dewpoint: 9.0°C (48°F) [RH = 56%]
Pressure (altimeter): 29.26 inches Hg (991.0 mb)
Winds: from the SE (130 degrees) at 14 MPH (12 knots; 6.2 m/s)
Visibility: 6 or more miles (10+ km)
Ceiling: at least 12,000 feet AGL
Clouds: few clouds at 2800 feet AGL
scattered clouds at 20000 feet AGL
Weather: no significant weather observed at this time

METAR text: EINN 231700Z 14015KT 9999 FEW028 18/09 Q0991 NOSIG
Conditions at: EINN (SHANNON AIRPORT , IE) observed 1700 UTC 23 April 2019
Temperature: 18.0°C (64°F)
Dewpoint: 9.0°C (48°F) [RH = 56%]
Pressure (altimeter): 29.26 inches Hg (991.0 mb)
Winds: from the SE (140 degrees) at 17 MPH (15 knots; 7.7 m/s)
Visibility: 6 or more miles (10+ km)
Ceiling: at least 12,000 feet AGL
Clouds: few clouds at 2800 feet AGL
Weather: no significant weather observed at this time

METAR text: EINN 231630Z 13016KT 9999 FEW028 18/10 Q0991 NOSIG
Conditions at: EINN (SHANNON AIRPORT , IE) observed 1630 UTC 23 April 2019
Temperature: 18.0°C (64°F)
Dewpoint: 10.0°C (50°F) [RH = 59%]
Pressure (altimeter): 29.26 inches Hg (991.0 mb)
Winds: from the SE (130 degrees) at 18 MPH (16 knots; 8.2 m/s)
Visibility: 6 or more miles (10+ km)
Ceiling: at least 12,000 feet AGL
Clouds: few clouds at 2800 feet AGL
Weather: no significant weather observed at this time

METAR text: EINN 231600Z 13017KT 9999 FEW028 19/10 Q0991 NOSIG
Conditions at: EINN (SHANNON AIRPORT , IE) observed 1600 UTC 23 April 2019
Temperature: 19.0°C (66°F)
Dewpoint: 10.0°C (50°F) [RH = 56%]
Pressure (altimeter): 29.26 inches Hg (991.0 mb)
Winds: from the SE (130 degrees) at 20 MPH (17 knots; 8.7 m/s)
Visibility: 6 or more miles (10+ km)
Ceiling: at least 12,000 feet AGL
Clouds: few clouds at 2800 feet AGL
Weather: no significant weather observed at this time

METAR text: EINN 231530Z 14015KT 9999 FEW026 SCT038 19/10 Q0991 NOSIG
Conditions at: EINN (SHANNON AIRPORT , IE) observed 1530 UTC 23 April 2019
Temperature: 19.0°C (66°F)
Dewpoint: 10.0°C (50°F) [RH = 56%]
Pressure (altimeter): 29.26 inches Hg (991.0 mb)
Winds: from the SE (140 degrees) at 17 MPH (15 knots; 7.7 m/s)
Visibility: 6 or more miles (10+ km)
Ceiling: at least 12,000 feet AGL
Clouds: few clouds at 2600 feet AGL
scattered clouds at 3800 feet AGL
Weather: no significant weather observed at this time

METAR text: EINN 231500Z 14015KT 9999 FEW026 19/09 Q0991 NOSIG
Conditions at: EINN (SHANNON AIRPORT , IE) observed 1500 UTC 23 April 2019
Temperature: 19.0°C (66°F)
Dewpoint: 9.0°C (48°F) [RH = 52%]
Pressure (altimeter): 29.26 inches Hg (991.0 mb)
Winds: from the SE (140 degrees) at 17 MPH (15 knots; 7.7 m/s)
Visibility: 6 or more miles (10+ km)
Ceiling: at least 12,000 feet AGL
Clouds: few clouds at 2600 feet AGL
Weather: no significant weather observed at this time

METAR text: EINN 231430Z 14015KT 9999 FEW026 20/09 Q0992 NOSIG
Conditions at: EINN (SHANNON AIRPORT , IE) observed 1430 UTC 23 April 2019
Temperature: 20.0°C (68°F)
Dewpoint: 9.0°C (48°F) [RH = 49%]
Pressure (altimeter): 29.29 inches Hg (992.0 mb)
Winds: from the SE (140 degrees) at 17 MPH (15 knots; 7.7 m/s)
Visibility: 6 or more miles (10+ km)
Ceiling: at least 12,000 feet AGL
Clouds: few clouds at 2600 feet AGL
Weather: no significant weather observed at this time

METAR text: EINN 231400Z 12014KT 9999 FEW026 SCT040 BKN200 19/10 Q0991 NOSIG
Conditions at: EINN (SHANNON AIRPORT , IE) observed 1400 UTC 23 April 2019
Temperature: 19.0°C (66°F)
Dewpoint: 10.0°C (50°F) [RH = 56%]
Pressure (altimeter): 29.26 inches Hg (991.0 mb)
Winds: from the ESE (120 degrees) at 16 MPH (14 knots; 7.2 m/s)
Visibility: 6 or more miles (10+ km)
Ceiling: 20000 feet AGL
Clouds: few clouds at 2600 feet AGL
scattered clouds at 4000 feet AGL
broken clouds at 20000 feet AGL
Weather: no significant weather observed at this time

METAR text: EINN 231330Z 11018KT 9999 FEW028 SCT050 BKN200 20/09 Q0992 NOSIG
Conditions at: EINN (SHANNON AIRPORT , IE) observed 1330 UTC 23 April 2019
Temperature: 20.0°C (68°F)
Dewpoint: 9.0°C (48°F) [RH = 49%]
Pressure (altimeter): 29.29 inches Hg (992.0 mb)
Winds: from the ESE (110 degrees) at 21 MPH (18 knots; 9.3 m/s)
Visibility: 6 or more miles (10+ km)
Ceiling: 20000 feet AGL
Clouds: few clouds at 2800 feet AGL
scattered clouds at 5000 feet AGL
broken clouds at 20000 feet AGL
Weather: no significant weather observed at this time

METAR text: EINN 231300Z 10019KT 9999 FEW028 SCT050 BKN200 19/10 Q0992 NOSIG
Conditions at: EINN (SHANNON AIRPORT , IE) observed 1300 UTC 23 April 2019
Temperature: 19.0°C (66°F)
Dewpoint: 10.0°C (50°F) [RH = 56%]
Pressure (altimeter): 29.29 inches Hg (992.0 mb)
Winds: from the E (100 degrees) at 22 MPH (19 knots; 9.8 m/s)
Visibility: 6 or more miles (10+ km)
Ceiling: 20000 feet AGL
Clouds: few clouds at 2800 feet AGL
scattered clouds at 5000 feet AGL
broken clouds at 20000 feet AGL
Weather: no significant weather observed at this time

METAR text: EINN 231230Z 11019KT 9999 FEW028 SCT070 BKN200 19/09 Q0992 NOSIG
Conditions at: EINN (SHANNON AIRPORT , IE) observed 1230 UTC 23 April 2019
Temperature: 19.0°C (66°F)
Dewpoint: 9.0°C (48°F) [RH = 52%]
Pressure (altimeter): 29.29 inches Hg (992.0 mb)
Winds: from the ESE (110 degrees) at 22 MPH (19 knots; 9.8 m/s)
Visibility: 6 or more miles (10+ km)
Ceiling: 20000 feet AGL
Clouds: few clouds at 2800 feet AGL
scattered clouds at 7000 feet AGL
broken clouds at 20000 feet AGL
Weather: no significant weather observed at this time

Forecast for: EINN (SHANNON AIRPORT , IE)
Text: TAF EINN 242300Z 2500/2524 13008KT 9999 FEW020 BKN030
Forecast period: 0000 UTC 25 April 2019 to 0000 UTC 26 April 2019
Forecast type: FROM: standard forecast or significant change
Winds: from the SE (130 degrees) at 9 MPH (8 knots; 4.1 m/s)
Visibility: 6 or more miles 10+ km)
Ceiling: 3000 feet AGL
Clouds: few clouds at 2000 feet AGL
broken clouds at 3000 feet AGL
Weather: no significant weather forecast for this period
Text: PROB40
Forecast period: 0200 to 0800 UTC 25 April 2019
Forecast type: TEMPORARY: The following changes expected for less than half the time period
Visibility: 0.75 miles (1.21 km)
Ceiling: 700 feet AGL
Clouds: broken clouds at 700 feet AGL
Weather: BR  (mist)
Text: TEMPO 2502/2508 1200 BR BKN007
Forecast period: 1400 to 1800 UTC 25 April 2019
Forecast type: TEMPORARY: The following changes expected for less than half the time period
Visibility: missing
Ceiling: 1000 feet AGL
Clouds: broken clouds at 1000 feet AGL
scattered clouds at 2000 feet AGL
Weather: -SHRA  (light rain showers)
Text: TEMPO 2514/2518 -SHRA BKN010 SCT020CB
Forecast period: 2200 UTC 25 April 2019 to 0000 UTC 26 April 2019
Forecast type: TEMPORARY: The following changes expected for less than half the time period
Visibility: 1.24 miles (2.00 km)
Ceiling: unknown
Clouds: missing
Weather: BR  (mist)